createdAt,value
2022-10-04T00:00:12.883Z,5.10
2022-10-04T00:06:20.743Z,4.93
2022-10-04T00:08:56.259Z,4.30
2022-10-04T00:11:26.630Z,4.53
2022-10-04T00:27:33.424Z,4.80
2022-10-04T00:34:01.845Z,4.97
2022-10-04T00:36:44.493Z,4.57
2022-10-04T00:43:18.741Z,5.38
2022-10-04T00:46:02.105Z,4.65
2022-10-04T00:48:38.140Z,5.53
2022-10-04T00:54:57.113Z,4.20
2022-10-04T00:57:32.120Z,5.13
2022-10-04T01:04:32.724Z,4.32
2022-10-04T01:07:03.499Z,5.35
2022-10-04T01:09:35.200Z,5.10
2022-10-04T01:15:55.698Z,5.68
2022-10-04T01:18:22.143Z,5.28
2022-10-04T01:32:45.061Z,5.78
2022-10-04T01:35:16.627Z,5.90
2022-10-04T01:37:43.287Z,7.43
2022-10-04T01:43:58.411Z,5.05
2022-10-04T01:46:32.667Z,4.68
2022-10-04T01:52:51.745Z,4.22
2022-10-04T01:55:27.826Z,4.60
2022-10-04T01:58:16.970Z,4.35
2022-10-04T02:04:34.780Z,4.32
2022-10-04T02:07:03.968Z,4.00
2022-10-04T02:09:34.512Z,3.95
2022-10-04T02:15:42.270Z,4.38
2022-10-04T02:18:18.376Z,4.65
2022-10-04T02:24:35.404Z,3.75
2022-10-04T02:34:07.686Z,4.38
2022-10-04T02:36:35.840Z,4.50
2022-10-04T02:39:26.922Z,4.30
2022-10-04T02:46:28.193Z,4.13
2022-10-04T02:56:12.131Z,4.22
2022-10-04T03:06:28.333Z,4.63
2022-10-04T03:09:05.281Z,4.43
2022-10-04T03:16:04.734Z,5.05
2022-10-04T03:18:32.498Z,4.50
2022-10-04T03:36:01.467Z,5.22
2022-10-04T03:38:29.353Z,4.97
2022-10-04T03:44:37.434Z,4.95
2022-10-04T03:47:14.615Z,4.28
2022-10-04T03:49:42.212Z,5.68
2022-10-04T03:55:59.914Z,7.13
2022-10-04T03:58:31.845Z,5.82
2022-10-04T04:07:15.879Z,5.05
2022-10-04T04:09:52.853Z,4.72
2022-10-04T04:16:06.746Z,4.28
2022-10-04T04:18:35.851Z,4.68
2022-10-04T04:25:05.647Z,5.53
2022-10-04T04:27:36.674Z,5.67
2022-10-04T04:30:05.674Z,5.43
2022-10-04T04:36:19.990Z,6.43
2022-10-04T04:39:04.709Z,5.60
2022-10-04T04:48:07.060Z,5.80
2022-10-04T04:50:36.592Z,6.35
2022-10-04T04:56:54.751Z,5.70
2022-10-04T04:59:27.164Z,5.82
2022-10-04T05:06:30.679Z,5.15
2022-10-04T05:08:57.213Z,4.65
2022-10-04T05:11:31.088Z,4.75
2022-10-04T05:17:45.297Z,4.07
2022-10-04T05:20:13.519Z,4.50
2022-10-04T05:26:27.649Z,5.13
2022-10-04T05:28:56.422Z,5.28
2022-10-04T05:31:35.766Z,5.75
2022-10-04T05:34:16.037Z,6.53
2022-10-04T05:39:27.178Z,7.78
2022-10-04T05:42:05.706Z,6.80
2022-10-04T05:44:37.253Z,5.55
2022-10-04T05:47:08.259Z,5.43
2022-10-04T05:49:44.109Z,6.00
2022-10-04T05:52:36.418Z,6.53
2022-10-04T05:55:24.108Z,5.53
2022-10-04T05:58:23.430Z,5.75
2022-10-04T06:01:16.377Z,5.47
2022-10-04T06:04:01.472Z,4.38
2022-10-04T06:06:43.665Z,4.82
2022-10-04T06:09:54.307Z,4.53
2022-10-04T06:12:44.457Z,5.38
2022-10-04T06:15:44.565Z,5.00
2022-10-04T06:18:29.690Z,4.80
2022-10-04T06:21:14.594Z,4.68
2022-10-04T06:24:17.689Z,5.18
2022-10-04T06:27:01.546Z,4.97
2022-10-04T06:29:38.829Z,5.13
2022-10-04T06:32:41.432Z,5.47
2022-10-04T06:35:35.035Z,4.22
2022-10-04T06:38:44.956Z,5.13
2022-10-04T06:41:45.065Z,4.68
2022-10-04T06:48:49.411Z,5.95
2022-10-04T06:51:45.628Z,5.40
2022-10-04T06:54:43.087Z,5.40
2022-10-04T06:57:23.304Z,6.13
2022-10-04T07:00:19.353Z,7.07
2022-10-04T07:03:16.211Z,8.13
2022-10-04T07:05:59.038Z,7.10
2022-10-04T07:08:35.484Z,6.30
2022-10-04T07:11:22.159Z,6.13
2022-10-04T07:13:57.846Z,6.97
2022-10-04T07:16:37.997Z,8.02
2022-10-04T07:19:19.828Z,7.65
2022-10-04T07:22:00.633Z,6.43
2022-10-04T07:24:45.981Z,5.70
2022-10-04T07:27:21.431Z,5.93
2022-10-04T07:29:54.946Z,5.95
2022-10-04T07:32:26.170Z,13.52
2022-10-04T07:38:15.765Z,5.72
2022-10-04T07:40:57.463Z,6.40
2022-10-04T07:43:40.686Z,5.55
2022-10-04T07:46:37.246Z,5.40
2022-10-04T07:49:04.351Z,4.25
2022-10-04T07:51:44.890Z,3.78
2022-10-04T07:54:44.197Z,3.45
2022-10-04T07:57:22.477Z,3.20
2022-10-04T08:00:15.458Z,3.67
2022-10-04T08:02:42.020Z,3.65
2022-10-04T08:05:36.011Z,4.22
2022-10-04T08:08:15.973Z,3.63
2022-10-04T08:11:12.401Z,4.15
2022-10-04T08:13:51.027Z,2.72
2022-10-04T08:16:26.086Z,3.00
2022-10-04T08:19:23.672Z,2.63
2022-10-04T08:22:25.695Z,4.93
2022-10-04T08:28:20.217Z,3.00
2022-10-04T08:33:37.176Z,2.92
2022-10-04T08:36:20.717Z,2.55
2022-10-04T08:38:53.376Z,2.80
2022-10-04T08:41:40.278Z,3.00
2022-10-04T08:44:28.123Z,2.50
2022-10-04T08:47:29.351Z,2.60
2022-10-04T08:50:17.164Z,2.72
2022-10-04T08:53:21.914Z,2.92
2022-10-04T08:56:13.311Z,2.55
2022-10-04T08:59:07.222Z,2.47
2022-10-04T09:01:47.378Z,2.53
2022-10-04T09:04:36.039Z,2.17
2022-10-04T09:07:30.362Z,2.33
2022-10-04T09:10:05.790Z,2.30
2022-10-04T09:12:44.453Z,1.95
2022-10-04T09:15:21.328Z,2.38
2022-10-04T09:17:59.527Z,1.88
2022-10-04T09:20:39.481Z,1.70
2022-10-04T09:23:42.458Z,1.80
2022-10-04T09:26:44.917Z,2.08
2022-10-04T09:29:49.538Z,2.00
2022-10-04T09:32:38.339Z,1.85
2022-10-04T09:35:13.977Z,2.23
2022-10-04T09:37:58.801Z,2.05
2022-10-04T09:40:28.706Z,2.05
2022-10-04T09:43:06.980Z,1.98
2022-10-04T09:45:58.037Z,2.30
2022-10-04T09:48:54.522Z,1.90
2022-10-04T09:51:35.456Z,2.05
2022-10-04T09:54:15.755Z,2.05
2022-10-04T09:56:51.366Z,2.33
2022-10-04T09:59:56.301Z,2.10
2022-10-04T10:02:59.985Z,2.17
2022-10-04T10:05:27.068Z,1.83
2022-10-04T10:08:08.845Z,2.10
2022-10-04T10:11:21.010Z,2.00
2022-10-04T10:14:21.174Z,2.10
2022-10-04T10:17:06.349Z,1.77
2022-10-04T10:20:00.915Z,1.85
2022-10-04T10:22:57.182Z,2.55
2022-10-04T10:25:39.696Z,2.00
2022-10-04T10:28:25.309Z,1.75
2022-10-04T10:31:05.588Z,2.00
2022-10-04T10:34:05.372Z,2.40
2022-10-04T10:37:10.361Z,2.10
2022-10-04T10:40:12.089Z,2.15
2022-10-04T10:42:54.332Z,2.22
2022-10-04T10:45:38.789Z,1.95
2022-10-04T10:48:14.864Z,2.00
2022-10-04T10:51:03.567Z,1.67
2022-10-04T10:54:00.914Z,1.60
2022-10-04T10:56:30.526Z,1.33
2022-10-04T10:59:16.247Z,1.70
2022-10-04T11:01:47.237Z,1.50
2022-10-04T11:04:43.843Z,2.15
2022-10-04T11:07:31.906Z,1.35
2022-10-04T11:10:27.307Z,1.10
2022-10-04T11:24:02.395Z,1.23
2022-10-04T11:27:14.317Z,1.00
2022-10-04T11:30:22.161Z,1.10
2022-10-04T11:33:22.635Z,1.25
2022-10-04T11:36:17.087Z,1.20
2022-10-04T11:38:48.422Z,1.00
2022-10-04T11:41:36.164Z,1.27
2022-10-04T11:44:05.666Z,1.08
2022-10-04T11:46:38.137Z,0.90
2022-10-04T11:49:26.568Z,1.00
2022-10-04T11:52:05.943Z,1.10
2022-10-04T11:54:53.360Z,1.17
2022-10-04T11:57:51.572Z,0.82
2022-10-04T12:00:18.570Z,1.17
2022-10-04T12:03:13.777Z,1.40
2022-10-04T12:06:11.211Z,1.25
2022-10-04T12:09:13.516Z,1.48
2022-10-04T12:12:21.599Z,1.17
2022-10-04T12:14:57.302Z,0.98
2022-10-04T12:17:46.104Z,1.20
2022-10-04T12:20:27.385Z,1.00
2022-10-04T12:23:06.244Z,1.00
2022-10-04T12:26:00.737Z,1.05
2022-10-04T12:28:53.600Z,1.00
2022-10-04T12:31:31.645Z,1.33
2022-10-04T12:34:01.238Z,0.95
2022-10-04T12:36:49.990Z,0.95
2022-10-04T12:39:33.453Z,0.90
2022-10-04T12:42:11.145Z,0.80
2022-10-04T12:44:56.349Z,0.82
2022-10-04T12:47:41.981Z,0.90
2022-10-04T12:50:47.972Z,1.20
2022-10-04T12:53:34.565Z,1.00
2022-10-04T12:56:28.605Z,1.13
2022-10-04T12:59:16.451Z,0.88
2022-10-04T13:01:42.940Z,1.05
2022-10-04T13:04:20.322Z,0.55
2022-10-04T13:06:55.600Z,1.10
2022-10-04T13:09:34.345Z,0.88
2022-10-04T13:12:34.515Z,0.85
2022-10-04T13:15:19.506Z,0.98
2022-10-04T13:18:10.260Z,1.00
2022-10-04T13:20:54.931Z,0.90
2022-10-04T13:23:58.683Z,0.75
2022-10-04T13:27:03.813Z,0.73
2022-10-04T13:29:43.149Z,1.13
2022-10-04T13:32:27.222Z,0.90
2022-10-04T13:35:11.833Z,1.00
2022-10-04T13:37:53.283Z,1.08
2022-10-04T13:40:25.442Z,0.95
2022-10-04T13:43:12.289Z,1.13
2022-10-04T13:45:48.466Z,1.10
2022-10-04T13:48:30.987Z,1.00
2022-10-04T13:51:16.285Z,1.38
2022-10-04T13:54:11.951Z,1.13
2022-10-04T13:57:09.398Z,1.35
2022-10-04T13:59:59.711Z,1.35
2022-10-04T14:02:48.542Z,1.25
2022-10-04T14:05:53.966Z,1.10
2022-10-04T14:08:58.261Z,1.20
2022-10-04T14:11:51.117Z,1.23
2022-10-04T14:14:39.960Z,1.20
2022-10-04T14:17:33.984Z,1.73
2022-10-04T14:20:09.611Z,1.40
2022-10-04T14:23:07.290Z,1.20
2022-10-04T14:26:07.407Z,1.30
2022-10-04T14:28:48.158Z,1.40
2022-10-04T14:31:27.205Z,0.88
2022-10-04T14:33:54.710Z,2.20
2022-10-04T14:36:41.029Z,1.05
2022-10-04T14:39:07.516Z,1.13
2022-10-04T14:41:36.874Z,1.05
2022-10-04T14:44:25.403Z,1.33
2022-10-04T14:46:56.594Z,1.20
2022-10-04T14:49:47.954Z,1.40
2022-10-04T14:52:40.594Z,1.25
2022-10-04T14:55:14.237Z,1.60
2022-10-04T14:58:01.985Z,1.30
2022-10-04T15:00:50.085Z,1.45
2022-10-04T15:03:30.353Z,1.30
2022-10-04T15:06:21.261Z,0.98
2022-10-04T15:09:00.338Z,1.08
2022-10-04T15:11:43.083Z,1.50
2022-10-04T15:14:25.822Z,1.38
2022-10-04T15:16:58.141Z,1.17
2022-10-04T15:20:05.606Z,1.50
2022-10-04T15:22:43.293Z,0.90
2022-10-04T15:25:38.208Z,1.17
2022-10-04T15:28:27.958Z,1.20
2022-10-04T15:31:23.140Z,1.17
2022-10-04T15:33:59.497Z,1.23
2022-10-04T15:36:44.669Z,1.23
2022-10-04T15:39:35.656Z,1.30
2022-10-04T15:42:25.449Z,1.02
2022-10-04T15:45:19.463Z,1.35
2022-10-04T15:48:22.813Z,0.90
2022-10-04T15:51:12.023Z,1.15
2022-10-04T15:53:58.055Z,1.40
2022-10-04T15:56:33.164Z,1.00
2022-10-04T15:59:35.325Z,3.58
2022-10-04T16:02:07.761Z,2.45
2022-10-04T16:04:46.476Z,3.33
2022-10-04T16:07:54.002Z,1.65
2022-10-04T16:10:47.591Z,2.40
2022-10-04T16:13:26.211Z,2.42
2022-10-04T16:16:25.874Z,1.90
2022-10-04T16:19:25.006Z,1.30
2022-10-04T16:22:07.799Z,1.33
2022-10-04T16:24:40.483Z,1.40
2022-10-04T16:27:28.061Z,1.60
2022-10-04T16:30:28.705Z,1.48
2022-10-04T16:33:03.461Z,1.75
2022-10-04T16:35:34.873Z,1.73
2022-10-04T16:38:20.919Z,2.13
2022-10-04T16:40:50.386Z,2.08
2022-10-04T16:43:16.775Z,1.90
2022-10-04T16:45:52.354Z,2.50
2022-10-04T16:48:36.969Z,3.05
2022-10-04T16:51:18.760Z,2.65
2022-10-04T16:54:10.140Z,2.35
2022-10-04T16:56:53.937Z,3.13
2022-10-04T16:59:38.773Z,2.72
2022-10-04T17:02:23.972Z,2.50
2022-10-04T17:05:19.254Z,2.78
2022-10-04T17:08:05.428Z,3.72
2022-10-04T17:10:40.349Z,2.75
2022-10-04T17:13:23.521Z,4.80
2022-10-04T17:16:06.742Z,6.82
2022-10-04T17:18:43.970Z,3.40
2022-10-04T17:21:31.004Z,3.05
2022-10-04T17:24:33.684Z,3.22
2022-10-04T17:27:35.107Z,4.38
2022-10-04T17:30:22.291Z,4.10
2022-10-04T17:33:18.023Z,4.15
2022-10-04T17:36:00.830Z,2.88
2022-10-04T17:38:45.665Z,2.80
2022-10-04T17:41:15.084Z,3.17
2022-10-04T17:44:07.209Z,2.80
2022-10-04T17:46:49.505Z,3.10
2022-10-04T17:49:48.888Z,4.15
2022-10-04T17:52:39.915Z,4.60
2022-10-04T17:55:17.120Z,3.83
2022-10-04T17:57:48.149Z,4.78
2022-10-04T18:00:26.308Z,4.28
2022-10-04T18:03:25.194Z,4.47
2022-10-04T18:05:59.211Z,5.10
2022-10-04T18:09:02.867Z,3.92
2022-10-04T18:11:47.195Z,4.90
2022-10-04T18:14:22.708Z,4.57
2022-10-04T18:16:54.837Z,3.58
2022-10-04T18:19:42.496Z,4.03
2022-10-04T18:22:20.370Z,6.22
2022-10-04T18:24:48.936Z,8.77
2022-10-04T18:27:22.990Z,9.32
2022-10-04T18:30:01.490Z,6.32
2022-10-04T18:32:27.916Z,3.67
2022-10-04T18:34:59.929Z,3.95
2022-10-04T18:37:41.136Z,3.60
2022-10-04T18:40:18.275Z,4.00
2022-10-04T18:42:55.671Z,3.50
2022-10-04T18:45:31.056Z,3.95
2022-10-04T18:48:00.676Z,3.90
2022-10-04T18:50:33.665Z,3.88
2022-10-04T18:53:16.047Z,3.40
2022-10-04T18:56:02.063Z,9.45
2022-10-04T18:59:15.332Z,9.20
2022-10-04T19:02:10.269Z,5.88
2022-10-04T19:04:49.746Z,4.45
2022-10-04T19:07:23.851Z,4.43
2022-10-04T19:09:55.287Z,4.15
2022-10-04T19:12:28.243Z,4.20
2022-10-04T19:15:07.154Z,6.00
2022-10-04T19:17:43.265Z,4.15
2022-10-04T19:20:34.258Z,4.20
2022-10-04T19:24:08.659Z,4.00
2022-10-04T19:26:40.720Z,3.95
2022-10-04T19:29:44.564Z,3.35
2022-10-04T19:32:26.975Z,3.95
2022-10-04T19:35:29.008Z,3.92
2022-10-04T19:38:22.688Z,3.95
2022-10-04T19:40:49.335Z,3.85
2022-10-04T19:43:28.315Z,4.25
2022-10-04T19:46:28.439Z,4.22
2022-10-04T19:48:55.000Z,3.65
2022-10-04T19:51:46.211Z,4.25
2022-10-04T19:54:17.637Z,3.75
2022-10-04T19:56:48.224Z,4.22
2022-10-04T19:59:19.034Z,4.80
2022-10-04T20:01:46.190Z,4.45
2022-10-04T20:04:36.192Z,4.47
2022-10-04T20:07:06.159Z,4.85
2022-10-04T20:09:41.151Z,4.30
2022-10-04T20:12:30.437Z,5.28
2022-10-04T20:15:14.790Z,5.03
2022-10-04T20:17:42.402Z,4.85
2022-10-04T20:20:09.053Z,5.85
2022-10-04T20:22:56.314Z,5.15
2022-10-04T20:25:45.451Z,6.18
2022-10-04T20:28:27.214Z,7.75
2022-10-04T20:30:56.094Z,5.90
2022-10-04T20:33:34.513Z,6.32
2022-10-04T20:36:02.034Z,7.22
2022-10-04T20:38:49.544Z,6.88
2022-10-04T20:42:00.713Z,5.72
2022-10-04T20:44:40.300Z,6.65
2022-10-04T20:47:28.935Z,6.03
2022-10-04T20:49:59.961Z,5.50
2022-10-04T20:52:29.839Z,5.80
2022-10-04T20:54:58.432Z,5.47
2022-10-04T20:57:25.231Z,6.53
2022-10-04T20:59:54.561Z,7.15
2022-10-04T21:02:24.019Z,7.93
2022-10-04T21:04:53.410Z,7.65
2022-10-04T21:07:25.531Z,6.38
2022-10-04T21:09:53.290Z,6.78
2022-10-04T21:12:34.722Z,6.80
2022-10-04T21:15:22.096Z,8.02
2022-10-04T21:18:02.131Z,7.70
2022-10-04T21:20:43.788Z,7.18
2022-10-04T21:23:35.406Z,8.05
2022-10-04T21:26:22.471Z,9.45
2022-10-04T21:28:53.322Z,8.05
2022-10-04T21:31:19.828Z,8.90
2022-10-04T21:33:46.345Z,11.60
2022-10-04T21:36:13.323Z,11.27
2022-10-04T21:38:39.795Z,9.07
2022-10-04T21:41:06.740Z,8.25
2022-10-04T21:43:33.697Z,6.82
2022-10-04T21:46:00.353Z,6.30
2022-10-04T21:48:27.501Z,6.43
2022-10-04T21:50:54.839Z,6.47
2022-10-04T21:53:22.061Z,6.20
2022-10-04T21:55:48.778Z,5.82
2022-10-04T21:58:15.378Z,6.90
2022-10-04T22:00:42.055Z,6.78
2022-10-04T22:03:08.611Z,7.03
2022-10-04T22:05:35.182Z,6.22
2022-10-04T22:08:01.708Z,6.78
2022-10-04T22:10:28.232Z,6.20
2022-10-04T22:12:57.000Z,6.72
2022-10-04T22:15:25.281Z,6.72
2022-10-04T22:17:51.896Z,6.78
2022-10-04T22:20:18.746Z,6.53
2022-10-04T22:22:45.343Z,6.22
2022-10-04T22:25:17.281Z,6.60
2022-10-04T22:27:44.379Z,6.85
2022-10-04T22:30:18.325Z,6.43
2022-10-04T22:32:45.668Z,6.95
2022-10-04T22:35:20.739Z,6.18
2022-10-04T22:37:48.671Z,6.25
2022-10-04T22:40:19.188Z,6.00
2022-10-04T22:42:46.631Z,6.03
2022-10-04T22:45:21.612Z,7.40
2022-10-04T22:47:49.035Z,6.25
2022-10-04T22:50:32.827Z,6.32
2022-10-04T22:53:04.869Z,6.72
2022-10-04T22:55:31.446Z,6.38
2022-10-04T22:57:58.089Z,5.85
2022-10-04T23:00:24.567Z,6.60
2022-10-04T23:02:51.173Z,6.40
2022-10-04T23:05:19.709Z,5.93
2022-10-04T23:07:47.613Z,6.45
2022-10-04T23:10:17.346Z,6.25
2022-10-04T23:12:49.123Z,5.68
2022-10-04T23:15:18.530Z,5.75
2022-10-04T23:17:47.309Z,6.10
2022-10-04T23:20:17.291Z,6.07
2022-10-04T23:22:45.879Z,6.38
2022-10-04T23:25:27.256Z,5.75
2022-10-04T23:28:01.039Z,5.53
2022-10-04T23:30:27.558Z,5.63
2022-10-04T23:32:58.094Z,5.40
2022-10-04T23:35:28.575Z,5.47
2022-10-04T23:37:55.252Z,6.22
2022-10-04T23:40:24.385Z,5.85
2022-10-04T23:42:53.787Z,6.40
2022-10-04T23:45:23.343Z,5.72
2022-10-04T23:47:53.233Z,6.28
2022-10-04T23:50:36.111Z,6.82
2022-10-04T23:53:06.386Z,7.70
2022-10-04T23:55:36.235Z,8.02
2022-10-04T23:58:13.129Z,7.28
